Time;durP1;ratioP1;P1;durP2;ratioP2;P2;SDS_P1;SDS_P2;PMS_P1;PMS_P2;Temp;Humidity;BMP_temperature;BMP_pressure;BME280_temperature;BME280_humidity;BME280_pressure;Samples;Min_cycle;Max_cycle;Signal;HPM_P1;HPM_P2
2023/02/27 00:00:51;;;;;;;6.60;2.08;;;2.00;99.90;;;;;;5033424;28;20435;-56
2023/02/27 00:03:18;;;;;;;7.00;1.70;;;2.00;99.90;;;;;;5032196;28;20041;-57
2023/02/27 00:05:44;;;;;;;4.57;1.75;;;2.00;99.90;;;;;;5033273;28;20484;-55
2023/02/27 00:08:11;;;;;;;6.95;2.10;;;1.90;99.90;;;;;;5033265;28;20041;-56
2023/02/27 00:10:38;;;;;;;10.07;1.95;;;1.90;99.90;;;;;;5033236;28;20057;-53
2023/02/27 00:13:04;;;;;;;12.20;2.33;;;1.90;99.90;;;;;;5033455;28;20044;-55
2023/02/27 00:15:31;;;;;;;5.88;1.77;;;1.90;99.90;;;;;;5033406;28;20069;-57
2023/02/27 00:17:58;;;;;;;6.18;1.90;;;1.90;99.90;;;;;;5033221;28;20038;-57
2023/02/27 00:20:25;;;;;;;5.97;1.92;;;1.90;99.90;;;;;;5033152;28;20034;-55
2023/02/27 00:22:52;;;;;;;5.85;1.98;;;1.90;99.90;;;;;;5032176;28;20049;-56
2023/02/27 00:25:18;;;;;;;5.60;1.77;;;1.80;99.90;;;;;;5033100;28;20116;-58
2023/02/27 00:27:45;;;;;;;9.55;1.90;;;1.90;99.90;;;;;;5033267;28;20045;-53
2023/02/27 00:30:12;;;;;;;5.63;1.77;;;1.80;99.90;;;;;;5033389;28;20110;-56
2023/02/27 00:32:39;;;;;;;10.52;2.60;;;1.80;99.90;;;;;;5032503;28;20535;-56
2023/02/27 00:35:05;;;;;;;4.78;1.75;;;1.80;99.90;;;;;;5033456;28;20045;-54
2023/02/27 00:37:33;;;;;;;6.95;1.95;;;1.80;99.90;;;;;;5033020;28;20107;-54
2023/02/27 00:40:00;;;;;;;7.60;1.90;;;1.80;99.90;;;;;;5033379;28;20052;-54
2023/02/27 00:42:27;;;;;;;4.22;1.55;;;1.80;99.90;;;;;;5032987;28;20454;-54
2023/02/27 00:44:54;;;;;;;5.43;1.77;;;1.70;99.90;;;;;;5032906;28;20124;-57
2023/02/27 00:47:20;;;;;;;7.25;1.80;;;1.70;99.90;;;;;;5031629;28;20049;-53
2023/02/27 00:49:47;;;;;;;4.72;1.60;;;1.70;99.90;;;;;;5032706;28;20041;-56
2023/02/27 00:52:14;;;;;;;5.95;1.75;;;1.70;99.90;;;;;;5031381;28;20480;-56
2023/02/27 00:54:41;;;;;;;5.75;1.75;;;1.70;99.90;;;;;;5026414;28;20499;-54
2023/02/27 00:57:07;;;;;;;6.20;1.70;;;1.70;99.90;;;;;;5026606;28;20041;-54
2023/02/27 00:59:34;;;;;;;7.50;1.92;;;1.60;99.90;;;;;;5025213;28;20496;-55
2023/02/27 01:02:01;;;;;;;5.72;1.77;;;1.60;99.90;;;;;;5026284;28;20095;-57
2023/02/27 01:04:28;;;;;;;5.25;1.85;;;1.60;99.90;;;;;;5044651;28;20473;-50
2023/02/27 01:06:54;;;;;;;5.57;1.73;;;1.60;99.90;;;;;;5031559;28;20100;-57
2023/02/27 01:09:23;;;;;;;5.07;1.75;;;1.70;99.90;;;;;;5031661;28;20053;-57
2023/02/27 01:11:50;;;;;;;9.23;1.67;;;1.60;99.90;;;;;;5035672;28;20508;-57
2023/02/27 01:14:17;;;;;;;6.50;1.63;;;1.60;99.90;;;;;;5036383;28;20041;-55
2023/02/27 01:16:44;;;;;;;6.97;1.55;;;1.60;99.90;;;;;;5036482;28;20070;-54
2023/02/27 01:19:11;;;;;;;5.13;1.77;;;1.60;99.90;;;;;;5036563;28;20049;-55
2023/02/27 01:21:40;;;;;;;4.53;1.45;;;1.60;99.90;;;;;;5036269;28;20037;-54
2023/02/27 01:24:07;;;;;;;8.00;1.73;;;1.60;99.90;;;;;;5036298;28;20504;-56
2023/02/27 01:26:34;;;;;;;7.18;1.58;;;1.60;99.90;;;;;;5036380;28;20430;-55
2023/02/27 01:29:01;;;;;;;7.88;1.98;;;1.60;99.90;;;;;;5035974;28;20045;-55
2023/02/27 01:31:28;;;;;;;5.05;1.33;;;1.60;99.90;;;;;;5036205;28;20045;-57
2023/02/27 01:33:55;;;;;;;6.57;1.90;;;1.60;99.90;;;;;;5036197;28;20168;-57
2023/02/27 01:36:22;;;;;;;7.30;1.42;;;1.60;99.90;;;;;;5036306;28;20041;-52
2023/02/27 01:38:48;;;;;;;6.20;1.55;;;1.60;99.90;;;;;;5036332;28;20103;-52
2023/02/27 01:41:15;;;;;;;5.38;1.75;;;1.50;99.90;;;;;;5035395;28;20099;-55
2023/02/27 01:43:42;;;;;;;4.53;1.40;;;1.60;99.90;;;;;;5034629;28;20037;-53
2023/02/27 01:46:08;;;;;;;3.50;1.67;;;1.50;99.90;;;;;;5035789;28;20042;-56
2023/02/27 01:48:35;;;;;;;7.85;1.75;;;1.50;99.90;;;;;;5035837;28;20091;-56
2023/02/27 01:51:02;;;;;;;7.20;1.50;;;1.50;99.90;;;;;;5018204;28;20049;-57
2023/02/27 01:53:30;;;;;;;6.85;2.08;;;1.50;99.90;;;;;;5034643;28;20050;-56
2023/02/27 01:55:57;;;;;;;7.93;2.25;;;1.50;99.90;;;;;;5034853;28;20049;-54
2023/02/27 01:58:25;;;;;;;5.20;1.55;;;1.50;99.90;;;;;;5035702;28;20049;-54
2023/02/27 02:00:52;;;;;;;7.78;2.55;;;1.40;99.90;;;;;;5034239;28;20041;-55
2023/02/27 02:03:19;;;;;;;7.22;2.13;;;1.40;99.90;;;;;;5034176;28;20049;-55
2023/02/27 02:05:46;;;;;;;6.03;1.80;;;1.20;99.90;;;;;;5034217;28;20067;-54
2023/02/27 02:08:13;;;;;;;6.18;2.03;;;1.20;99.90;;;;;;5035708;28;20117;-52
2023/02/27 02:10:40;;;;;;;6.03;2.55;;;1.10;99.90;;;;;;5034056;28;20389;-56
2023/02/27 02:13:07;;;;;;;8.68;2.53;;;1.10;99.90;;;;;;5035735;28;20040;-52
2023/02/27 02:15:33;;;;;;;9.18;2.55;;;1.00;99.90;;;;;;5035372;28;20400;-54
2023/02/27 02:18:00;;;;;;;5.90;2.10;;;1.00;99.90;;;;;;5035644;28;20049;-55
2023/02/27 02:20:27;;;;;;;6.05;2.17;;;0.90;99.90;;;;;;5034758;28;20499;-55
2023/02/27 02:22:56;;;;;;;8.13;2.10;;;0.80;99.90;;;;;;5034080;28;20037;-55
2023/02/27 02:25:22;;;;;;;6.32;2.20;;;0.80;99.90;;;;;;5034857;28;20095;-51
2023/02/27 02:27:49;;;;;;;6.32;1.80;;;0.70;99.90;;;;;;5035002;28;20076;-54
2023/02/27 02:30:16;;;;;;;5.13;2.05;;;0.60;99.90;;;;;;5033947;28;20056;-52
2023/02/27 02:32:42;;;;;;;5.38;2.20;;;0.50;99.90;;;;;;5033566;28;20495;-54
2023/02/27 02:35:11;;;;;;;5.07;1.80;;;0.50;99.90;;;;;;5033893;28;20053;-55
2023/02/27 02:37:37;;;;;;;6.80;2.85;;;0.50;99.90;;;;;;5033904;28;20084;-54
2023/02/27 02:40:04;;;;;;;6.50;2.28;;;0.60;99.90;;;;;;5033478;28;20496;-52
2023/02/27 02:42:31;;;;;;;5.22;2.33;;;0.60;99.90;;;;;;5034056;28;20068;-56
2023/02/27 02:44:58;;;;;;;6.78;2.25;;;0.60;99.90;;;;;;5034795;28;20041;-54
2023/02/27 02:47:24;;;;;;;9.15;2.30;;;0.50;99.90;;;;;;5034780;28;20103;-55
2023/02/27 02:49:51;;;;;;;7.50;2.38;;;0.50;99.90;;;;;;5034523;28;20492;-56
2023/02/27 02:52:18;;;;;;;9.40;2.65;;;0.40;99.90;;;;;;5034599;28;20412;-54
2023/02/27 02:54:45;;;;;;;7.45;2.17;;;0.40;99.90;;;;;;5034724;28;20040;-57
2023/02/27 02:57:11;;;;;;;6.28;2.40;;;0.40;99.90;;;;;;5033339;28;20051;-51
2023/02/27 02:59:38;;;;;;;8.82;2.90;;;0.40;99.90;;;;;;5033234;28;20132;-53
2023/02/27 03:02:05;;;;;;;6.05;2.47;;;0.30;99.90;;;;;;5033042;28;20438;-56
2023/02/27 03:04:32;;;;;;;7.65;2.67;;;0.30;99.90;;;;;;5034329;28;20041;-55
2023/02/27 03:06:59;;;;;;;6.50;2.38;;;0.30;99.90;;;;;;5033159;28;20483;-54
2023/02/27 03:09:25;;;;;;;5.25;2.30;;;0.30;99.90;;;;;;5033044;28;20076;-55
2023/02/27 03:11:52;;;;;;;9.15;2.55;;;0.20;99.90;;;;;;5034073;28;20045;-56
2023/02/27 03:14:19;;;;;;;9.85;2.40;;;0.20;99.90;;;;;;5032950;28;20046;-52
2023/02/27 03:16:46;;;;;;;12.68;2.97;;;0.20;99.90;;;;;;5016762;28;20096;-53
2023/02/27 03:19:13;;;;;;;7.18;2.70;;;0.20;99.90;;;;;;5032837;28;20053;-52
2023/02/27 03:21:40;;;;;;;4.07;1.85;;;0.10;99.90;;;;;;5034132;28;20053;-54
2023/02/27 03:24:06;;;;;;;4.82;2.45;;;0.10;99.90;;;;;;5033796;28;20038;-55
2023/02/27 03:26:35;;;;;;;7.43;2.55;;;0.20;99.90;;;;;;5032424;28;20046;-56
2023/02/27 03:29:03;;;;;;;7.30;2.58;;;0.10;99.90;;;;;;5030075;28;20069;-53
2023/02/27 03:31:30;;;;;;;4.88;2.40;;;0.10;99.90;;;;;;5032736;28;20080;-53
2023/02/27 03:33:58;;;;;;;7.72;2.60;;;0.10;99.90;;;;;;5033071;28;20496;-55
2023/02/27 03:36:27;;;;;;;6.10;2.60;;;0.10;99.90;;;;;;5032672;28;20049;-54
2023/02/27 03:38:54;;;;;;;6.70;2.20;;;0.10;99.90;;;;;;5032562;28;20095;-54
2023/02/27 03:41:21;;;;;;;7.57;2.53;;;0.10;99.90;;;;;;5032487;28;20060;-56
2023/02/27 03:43:55;;;;;;;5.50;2.60;;;0.00;99.90;;;;;;5031939;28;20045;-54
2023/02/27 03:46:22;;;;;;;7.82;2.88;;;0.00;99.90;;;;;;5032662;28;20065;-53
2023/02/27 03:48:50;;;;;;;7.03;2.55;;;0.00;99.90;;;;;;5032388;28;20488;-51
2023/02/27 03:51:17;;;;;;;7.30;2.92;;;0.00;99.90;;;;;;5033706;28;20073;-54
2023/02/27 03:53:43;;;;;;;5.15;3.00;;;0.00;99.90;;;;;;5032343;28;20424;-53
2023/02/27 03:56:10;;;;;;;8.00;2.78;;;0.00;99.90;;;;;;5032402;28;20107;-54
2023/02/27 03:58:37;;;;;;;6.32;2.63;;;0.00;99.90;;;;;;5032365;28;20049;-54
2023/02/27 04:01:04;;;;;;;5.63;2.33;;;0.00;99.90;;;;;;5031951;28;20037;-52
2023/02/27 04:03:30;;;;;;;7.07;2.20;;;0.00;99.90;;;;;;5033538;28;20038;-54
2023/02/27 04:07:21;;;;;;;9.98;2.30;;;0.00;99.90;;;;;;5031930;28;20398;-57
2023/02/27 04:08:44;;;;;;;7.25;2.30;;;-0.10;99.90;;;;;;5033593;28;20060;-55
2023/02/27 04:11:11;;;;;;;7.05;2.15;;;-0.10;99.90;;;;;;5033443;28;20459;-55
2023/02/27 04:13:37;;;;;;;4.95;2.03;;;-0.20;99.90;;;;;;5033215;28;20401;-57
2023/02/27 04:16:04;;;;;;;9.40;2.80;;;-0.10;99.90;;;;;;5033170;28;20091;-50
2023/02/27 04:18:31;;;;;;;6.93;2.42;;;-0.10;99.90;;;;;;5033219;28;20104;-49
2023/02/27 04:20:58;;;;;;;10.70;3.10;;;-0.10;99.90;;;;;;5027229;28;20041;-51
2023/02/27 04:23:24;;;;;;;6.90;2.10;;;-0.20;99.90;;;;;;5027101;28;20037;-52
2023/02/27 04:25:51;;;;;;;7.22;2.30;;;-0.10;99.90;;;;;;5026650;28;20496;-57
2023/02/27 04:28:18;;;;;;;7.32;2.17;;;-0.20;99.90;;;;;;5032639;28;20076;-57
2023/02/27 04:30:44;;;;;;;5.20;2.22;;;-0.20;99.90;;;;;;5032951;28;20404;-55
2023/02/27 04:33:11;;;;;;;4.85;2.28;;;-0.20;99.90;;;;;;5033189;28;20037;-55
2023/02/27 04:35:38;;;;;;;8.07;2.30;;;-0.30;99.90;;;;;;5033013;28;20099;-56
2023/02/27 04:38:05;;;;;;;6.07;2.22;;;-0.20;99.90;;;;;;5033231;28;20108;-55
2023/02/27 04:40:32;;;;;;;7.93;2.40;;;-0.20;99.90;;;;;;5033170;28;20053;-54
2023/02/27 04:42:59;;;;;;;3.47;1.90;;;-0.20;99.90;;;;;;5032867;28;20087;-54
2023/02/27 04:45:26;;;;;;;5.55;1.75;;;-0.20;99.90;;;;;;5035175;28;20095;-55
2023/02/27 04:47:53;;;;;;;3.53;1.73;;;-0.30;99.90;;;;;;5037069;28;20417;-56
2023/02/27 04:50:19;;;;;;;4.60;2.08;;;-0.30;99.90;;;;;;5037071;28;20049;-56
2023/02/27 04:52:46;;;;;;;4.75;1.58;;;-0.30;99.90;;;;;;5036849;28;20052;-56
2023/02/27 04:55:13;;;;;;;7.25;1.95;;;-0.40;99.90;;;;;;5037010;28;20049;-53
2023/02/27 04:57:40;;;;;;;8.13;2.10;;;-0.40;99.90;;;;;;5036796;28;20088;-56
2023/02/27 05:00:07;;;;;;;7.68;2.20;;;-0.40;99.90;;;;;;5036880;28;20488;-55
2023/02/27 05:02:33;;;;;;;6.65;2.13;;;-0.50;99.90;;;;;;5036424;28;20037;-54
2023/02/27 05:05:00;;;;;;;6.97;2.53;;;-0.50;99.90;;;;;;5036560;28;20041;-56
2023/02/27 05:07:27;;;;;;;9.13;2.80;;;-0.50;99.90;;;;;;5036737;28;20037;-56
2023/02/27 05:09:54;;;;;;;7.53;2.55;;;-0.50;99.90;;;;;;5035817;28;20045;-55
2023/02/27 05:12:20;;;;;;;5.60;2.45;;;-0.50;99.90;;;;;;5036822;28;20053;-53
2023/02/27 05:14:47;;;;;;;11.68;2.80;;;-0.50;99.90;;;;;;5036223;28;20045;-55
2023/02/27 05:17:14;;;;;;;5.60;2.47;;;-0.50;99.90;;;;;;5036334;28;20049;-52
2023/02/27 05:19:41;;;;;;;5.68;2.40;;;-0.60;99.90;;;;;;5036348;28;20494;-54
2023/02/27 05:22:08;;;;;;;5.10;2.40;;;-0.60;99.90;;;;;;5035932;28;20063;-54
2023/02/27 05:24:35;;;;;;;7.63;2.40;;;-0.60;99.90;;;;;;5036410;28;20535;-53
2023/02/27 05:27:02;;;;;;;4.53;2.15;;;-0.60;99.90;;;;;;5036206;28;20413;-51
2023/02/27 05:29:28;;;;;;;10.80;2.28;;;-0.60;99.90;;;;;;5036193;28;20108;-49
2023/02/27 05:31:55;;;;;;;4.75;2.10;;;-0.60;99.90;;;;;;5036067;28;20054;-55
2023/02/27 05:34:22;;;;;;;5.20;2.10;;;-0.70;99.90;;;;;;5035489;28;20480;-52
2023/02/27 05:36:49;;;;;;;7.35;2.38;;;-0.70;99.90;;;;;;5036174;28;20407;-51
2023/02/27 05:39:15;;;;;;;6.88;2.42;;;-0.70;99.90;;;;;;5036134;28;20069;-53
2023/02/27 05:41:42;;;;;;;6.07;2.72;;;-0.70;99.90;;;;;;5035759;28;20091;-53
2023/02/27 05:44:09;;;;;;;4.70;2.20;;;-0.70;99.90;;;;;;5036164;28;20382;-53
2023/02/27 05:46:36;;;;;;;10.85;2.33;;;-0.70;99.90;;;;;;5034667;28;20065;-53
2023/02/27 05:49:02;;;;;;;4.47;2.40;;;-0.70;99.90;;;;;;5035681;28;20120;-56
2023/02/27 05:51:29;;;;;;;6.10;2.45;;;-0.70;99.90;;;;;;5033867;28;20099;-51
2023/02/27 05:53:56;;;;;;;6.57;2.42;;;-0.70;99.90;;;;;;5035439;28;20497;-52
2023/02/27 05:56:22;;;;;;;5.55;2.70;;;-0.70;99.90;;;;;;5034985;28;20045;-50
2023/02/27 05:58:49;;;;;;;10.27;2.65;;;-0.70;99.90;;;;;;5034535;28;20107;-54
2023/02/27 06:01:16;;;;;;;11.18;2.85;;;-0.70;99.90;;;;;;5035698;28;20041;-57
2023/02/27 06:03:43;;;;;;;8.60;3.33;;;-0.70;99.90;;;;;;5035473;28;20038;-51
2023/02/27 06:06:10;;;;;;;6.20;2.88;;;-0.70;99.90;;;;;;5035459;28;20045;-54
2023/02/27 06:08:36;;;;;;;8.13;3.08;;;-0.70;99.90;;;;;;5035769;28;20068;-56
2023/02/27 06:11:03;;;;;;;12.10;2.83;;;-0.80;99.90;;;;;;5033967;28;20076;-55
2023/02/27 06:13:30;;;;;;;6.72;3.13;;;-0.80;99.90;;;;;;5035256;28;20439;-57
2023/02/27 06:15:56;;;;;;;13.93;3.53;;;-0.80;99.90;;;;;;5035334;28;20033;-52
2023/02/27 06:18:23;;;;;;;7.90;2.83;;;-0.80;99.90;;;;;;5035225;28;20069;-55
2023/02/27 06:20:50;;;;;;;6.75;2.70;;;-0.80;99.90;;;;;;5035530;28;20480;-52
2023/02/27 06:23:17;;;;;;;8.13;3.10;;;-0.80;99.90;;;;;;5035190;28;20550;-52
2023/02/27 06:25:43;;;;;;;9.65;3.25;;;-0.90;99.90;;;;;;5035182;28;20067;-51
2023/02/27 06:28:10;;;;;;;8.95;3.22;;;-0.90;99.90;;;;;;5034585;28;20056;-49
2023/02/27 06:30:37;;;;;;;7.43;2.97;;;-0.90;99.90;;;;;;5034086;28;20610;-52
2023/02/27 06:33:04;;;;;;;10.77;3.28;;;-0.90;99.90;;;;;;5034788;28;20503;-53
2023/02/27 06:35:31;;;;;;;7.25;2.92;;;-1.00;99.90;;;;;;5034687;28;20037;-51
2023/02/27 06:37:57;;;;;;;6.70;3.22;;;-0.90;99.90;;;;;;5035250;28;20042;-53
2023/02/27 06:40:24;;;;;;;8.90;3.10;;;-0.90;99.90;;;;;;5034623;28;20092;-57
2023/02/27 06:42:51;;;;;;;12.07;2.88;;;-0.90;99.90;;;;;;5034323;28;20072;-52
2023/02/27 06:45:18;;;;;;;7.88;2.78;;;-0.90;99.90;;;;;;5033604;28;20038;-57
2023/02/27 06:47:44;;;;;;;31.13;3.50;;;-0.90;99.90;;;;;;5034807;28;20121;-53
2023/02/27 06:50:11;;;;;;;8.02;2.50;;;-0.90;99.90;;;;;;5035074;28;20381;-56
2023/02/27 06:52:38;;;;;;;9.57;2.90;;;-0.90;99.90;;;;;;5034491;28;20064;-54
2023/02/27 06:55:04;;;;;;;7.97;3.60;;;-0.90;99.90;;;;;;5034071;28;20171;-53
2023/02/27 06:57:31;;;;;;;11.65;5.30;;;-1.00;99.90;;;;;;5034693;28;20038;-50
2023/02/27 06:59:58;;;;;;;7.75;4.15;;;-1.00;99.90;;;;;;5034014;28;20044;-52
2023/02/27 07:02:25;;;;;;;6.65;3.80;;;-1.00;99.90;;;;;;5034380;28;20415;-54
2023/02/27 07:04:51;;;;;;;12.27;4.10;;;-1.00;99.90;;;;;;5034520;28;20164;-53
2023/02/27 07:07:18;;;;;;;12.75;4.20;;;-1.00;99.90;;;;;;5034396;28;20045;-56
2023/02/27 07:10:02;;;;;;;8.60;3.97;;;-1.00;99.90;;;;;;5034385;28;20103;-53
2023/02/27 07:12:29;;;;;;;9.85;4.18;;;-1.00;99.90;;;;;;5034682;28;20076;-50
2023/02/27 07:14:56;;;;;;;9.38;4.22;;;-1.00;99.90;;;;;;5034179;28;20049;-55
2023/02/27 07:17:22;;;;;;;10.40;4.70;;;-1.00;99.90;;;;;;5034519;28;20519;-54
2023/02/27 07:19:49;;;;;;;9.93;4.82;;;-1.00;99.90;;;;;;5034126;28;20092;-53
2023/02/27 07:22:16;;;;;;;9.25;4.65;;;-1.00;99.90;;;;;;5033964;28;20433;-51
2023/02/27 07:24:43;;;;;;;13.68;4.80;;;-1.00;99.90;;;;;;5032858;28;20069;-53
2023/02/27 07:27:10;;;;;;;13.60;5.45;;;-1.00;99.90;;;;;;5033633;28;20503;-56
2023/02/27 07:29:36;;;;;;;9.25;5.18;;;-1.00;99.90;;;;;;5033999;28;20111;-50
2023/02/27 07:32:03;;;;;;;12.13;5.18;;;-1.00;99.90;;;;;;5033810;28;20493;-50
2023/02/27 07:34:30;;;;;;;10.70;4.80;;;-0.90;99.90;;;;;;5034030;28;20480;-51
2023/02/27 07:36:56;;;;;;;9.85;5.70;;;-0.90;99.90;;;;;;5033732;28;20069;-54
2023/02/27 07:39:23;;;;;;;9.77;4.85;;;-0.90;99.90;;;;;;5033472;28;20045;-51
2023/02/27 07:41:50;;;;;;;11.80;4.90;;;-0.80;99.90;;;;;;5033489;28;20033;-54
2023/02/27 07:44:17;;;;;;;8.65;4.03;;;-0.80;99.90;;;;;;5033151;28;20077;-52
2023/02/27 07:46:46;;;;;;;14.00;4.55;;;-0.80;99.90;;;;;;5033605;28;20037;-56
2023/02/27 07:49:12;;;;;;;11.13;4.55;;;-0.70;99.90;;;;;;5032982;28;20103;-54
2023/02/27 07:51:39;;;;;;;10.63;4.35;;;-0.70;99.90;;;;;;5032276;28;20046;-51
2023/02/27 07:54:06;;;;;;;8.48;4.60;;;-0.70;99.90;;;;;;5032135;28;20100;-50
2023/02/27 07:56:33;;;;;;;8.98;4.70;;;-0.60;99.90;;;;;;5032200;28;20049;-52
2023/02/27 07:58:59;;;;;;;11.80;5.43;;;-0.60;99.90;;;;;;5031758;28;20072;-49
2023/02/27 08:01:26;;;;;;;9.95;4.63;;;-0.60;99.90;;;;;;5032197;28;20046;-52
2023/02/27 08:03:53;;;;;;;11.25;4.53;;;-0.50;99.90;;;;;;5030945;28;20041;-55
2023/02/27 08:06:20;;;;;;;11.73;4.85;;;-0.50;99.90;;;;;;5033493;28;20045;-49
2023/02/27 08:08:47;;;;;;;11.05;6.10;;;-0.40;99.90;;;;;;5031978;28;20044;-52
2023/02/27 08:11:14;;;;;;;8.38;4.40;;;-0.40;99.90;;;;;;5033252;28;20446;-56
2023/02/27 08:13:41;;;;;;;13.65;5.38;;;-0.30;99.90;;;;;;5033300;28;20427;-49
2023/02/27 08:16:26;;;;;;;10.30;5.15;;;-0.30;99.90;;;;;;5033692;28;20052;-57
2023/02/27 08:18:53;;;;;;;10.95;5.13;;;-0.20;99.90;;;;;;5033142;28;20114;-56
2023/02/27 08:21:20;;;;;;;13.68;5.38;;;-0.10;99.90;;;;;;5033520;28;20124;-50
2023/02/27 08:23:47;;;;;;;11.52;5.18;;;0.00;99.90;;;;;;5033116;28;20087;-51
2023/02/27 08:26:14;;;;;;;11.18;4.72;;;0.00;99.90;;;;;;5033373;28;20477;-52
2023/02/27 08:28:40;;;;;;;8.43;4.65;;;0.10;99.90;;;;;;5031291;28;20432;-54
2023/02/27 08:31:07;;;;;;;12.50;5.80;;;0.20;99.90;;;;;;5033287;28;20045;-48
2023/02/27 08:33:34;;;;;;;9.57;5.05;;;0.30;99.90;;;;;;5033203;28;20108;-52
2023/02/27 08:36:01;;;;;;;10.77;4.90;;;0.40;99.90;;;;;;5033115;28;20041;-48
2023/02/27 08:38:28;;;;;;;13.15;4.75;;;0.50;99.90;;;;;;5031912;28;20049;-52
2023/02/27 08:40:54;;;;;;;15.15;4.47;;;0.60;99.90;;;;;;5033238;28;20077;-49
2023/02/27 08:43:21;;;;;;;10.07;3.80;;;0.80;99.90;;;;;;5033219;28;20463;-55
2023/02/27 08:45:48;;;;;;;5.85;3.75;;;0.90;99.90;;;;;;5033039;28;20046;-54
2023/02/27 08:48:16;;;;;;;11.35;3.95;;;1.00;99.90;;;;;;5032102;28;20507;-51
2023/02/27 08:50:43;;;;;;;6.82;3.58;;;1.20;99.90;;;;;;5032988;28;20433;-55
2023/02/27 08:53:10;;;;;;;8.23;3.28;;;1.30;99.90;;;;;;5032831;28;20104;-52
2023/02/27 08:55:36;;;;;;;8.05;3.47;;;1.60;99.90;;;;;;5032785;28;20128;-48
2023/02/27 08:58:03;;;;;;;9.50;3.33;;;1.80;99.90;;;;;;5032623;28;20056;-53
2023/02/27 09:00:31;;;;;;;10.70;3.53;;;1.90;99.90;;;;;;5031768;28;20496;-54
2023/02/27 09:02:59;;;;;;;9.13;3.35;;;2.10;99.90;;;;;;5031226;28;20053;-51
2023/02/27 09:05:25;;;;;;;8.43;3.47;;;2.20;99.90;;;;;;5033080;28;20041;-53
2023/02/27 09:07:52;;;;;;;8.52;3.03;;;2.40;99.90;;;;;;5032922;28;20046;-53
2023/02/27 09:10:19;;;;;;;10.80;3.75;;;2.50;99.90;;;;;;5032592;28;20045;-54
2023/02/27 09:12:48;;;;;;;10.27;3.67;;;2.70;99.90;;;;;;5032340;28;20056;-52
2023/02/27 09:15:14;;;;;;;8.75;3.28;;;2.80;99.90;;;;;;5032831;28;20049;-52
2023/02/27 09:17:41;;;;;;;8.60;3.38;;;2.90;99.90;;;;;;5032913;28;20057;-51
2023/02/27 09:20:08;;;;;;;12.68;4.50;;;3.00;99.90;;;;;;5032610;28;20041;-55
2023/02/27 09:22:35;;;;;;;6.80;3.25;;;3.10;99.90;;;;;;5032633;28;20037;-51
2023/02/27 09:25:02;;;;;;;10.32;3.55;;;3.20;99.90;;;;;;5032652;28;20045;-53
2023/02/27 09:27:29;;;;;;;9.85;3.47;;;3.30;99.90;;;;;;5032655;28;20041;-55
2023/02/27 09:29:55;;;;;;;12.93;4.28;;;3.40;99.90;;;;;;5032809;28;20084;-52
2023/02/27 09:32:22;;;;;;;7.80;3.38;;;3.50;99.90;;;;;;5035256;28;20060;-54
2023/02/27 09:34:49;;;;;;;13.95;3.58;;;3.60;99.90;;;;;;5036356;28;20045;-55
2023/02/27 09:37:18;;;;;;;9.50;3.08;;;3.70;99.90;;;;;;5035389;28;20042;-54
2023/02/27 09:39:44;;;;;;;8.88;2.58;;;3.80;99.90;;;;;;5036221;28;20045;-55
2023/02/27 09:42:14;;;;;;;9.18;2.45;;;3.90;99.90;;;;;;5034699;28;20041;-55
2023/02/27 09:44:43;;;;;;;16.23;3.17;;;4.00;99.90;;;;;;5036253;28;20370;-53
2023/02/27 09:47:12;;;;;;;8.60;2.35;;;4.10;99.90;;;;;;5034878;28;20061;-49
2023/02/27 09:49:39;;;;;;;10.32;2.60;;;4.20;99.90;;;;;;5036099;28;20041;-50
2023/02/27 09:52:06;;;;;;;8.15;2.28;;;4.30;99.90;;;;;;5035775;28;20049;-54
2023/02/27 09:54:33;;;;;;;10.50;2.53;;;4.40;99.90;;;;;;5035881;28;20053;-54
2023/02/27 09:57:00;;;;;;;10.60;2.67;;;4.40;99.90;;;;;;5035962;28;20107;-52
2023/02/27 09:59:26;;;;;;;8.07;2.35;;;4.50;99.90;;;;;;5035464;28;20492;-54
2023/02/27 10:01:53;;;;;;;13.98;2.50;;;4.60;99.90;;;;;;5035029;28;20579;-55
2023/02/27 10:04:20;;;;;;;8.65;2.28;;;4.60;99.90;;;;;;5035377;28;20087;-56
2023/02/27 10:06:47;;;;;;;10.63;2.63;;;4.70;99.90;;;;;;5035389;28;20099;-53
2023/02/27 10:09:14;;;;;;;8.15;2.30;;;4.80;99.90;;;;;;5035582;28;20042;-51
2023/02/27 10:11:40;;;;;;;6.50;2.35;;;4.90;99.90;;;;;;5035159;28;20066;-53
2023/02/27 10:14:07;;;;;;;8.57;2.90;;;5.00;99.90;;;;;;5035433;28;20079;-53
2023/02/27 10:16:34;;;;;;;18.42;2.95;;;5.10;99.90;;;;;;5035756;28;20099;-55
2023/02/27 10:19:01;;;;;;;8.50;2.20;;;5.20;99.90;;;;;;5034129;28;20053;-57
2023/02/27 10:21:27;;;;;;;9.75;2.30;;;5.20;99.90;;;;;;5034145;28;20221;-55
2023/02/27 10:23:56;;;;;;;8.27;1.92;;;5.30;99.90;;;;;;5035077;28;20096;-57
2023/02/27 10:26:23;;;;;;;9.80;2.33;;;5.40;99.90;;;;;;5034962;28;20037;-54
2023/02/27 10:28:50;;;;;;;8.32;2.33;;;5.40;99.90;;;;;;5033136;28;20484;-57
2023/02/27 10:31:19;;;;;;;12.35;2.08;;;5.50;99.90;;;;;;5035123;28;20037;-52
2023/02/27 10:33:47;;;;;;;10.30;2.22;;;5.60;99.90;;;;;;5034818;28;20057;-55
2023/02/27 10:36:14;;;;;;;16.40;2.47;;;5.80;99.90;;;;;;5034259;28;20136;-49
2023/02/27 10:38:58;;;;;;;6.05;2.25;;;5.90;99.90;;;;;;5034975;28;20038;-49
2023/02/27 10:41:25;;;;;;;6.07;1.42;;;5.90;99.90;;;;;;5034618;28;20488;-54
2023/02/27 10:43:54;;;;;;;12.63;2.22;;;5.90;99.90;;;;;;5033207;28;20484;-51
2023/02/27 10:46:20;;;;;;;7.25;1.90;;;5.90;99.90;;;;;;5034816;28;20401;-52
2023/02/27 10:48:47;;;;;;;8.07;1.88;;;5.90;99.90;;;;;;5034953;28;20041;-51
2023/02/27 10:51:14;;;;;;;9.98;1.80;;;5.90;99.90;;;;;;5034716;28;20045;-54
2023/02/27 10:53:41;;;;;;;7.72;1.60;;;5.90;99.90;;;;;;5034708;28;20049;-53
2023/02/27 10:56:09;;;;;;;8.60;1.75;;;5.90;99.90;;;;;;5034952;28;20099;-52
2023/02/27 10:58:36;;;;;;;11.80;1.58;;;6.00;99.90;;;;;;5032980;28;20095;-53
2023/02/27 11:01:03;;;;;;;3.65;1.15;;;6.00;99.90;;;;;;5034703;28;20049;-50
2023/02/27 11:03:29;;;;;;;6.05;1.52;;;5.90;99.90;;;;;;5033484;28;20048;-50
2023/02/27 11:05:56;;;;;;;7.20;1.75;;;5.90;99.90;;;;;;5033319;28;20076;-50
2023/02/27 11:08:23;;;;;;;8.27;1.67;;;6.00;99.90;;;;;;5033255;28;20056;-53
2023/02/27 11:10:50;;;;;;;7.63;1.90;;;6.00;99.90;;;;;;5032898;28;20076;-52
2023/02/27 11:13:17;;;;;;;6.78;1.63;;;6.10;99.90;;;;;;5031488;28;20095;-51
2023/02/27 11:15:43;;;;;;;7.18;2.15;;;6.10;99.90;;;;;;5033459;28;20124;-52
2023/02/27 11:18:10;;;;;;;6.78;1.50;;;6.10;99.90;;;;;;5033351;28;20120;-51
2023/02/27 11:20:39;;;;;;;5.30;1.40;;;6.10;99.90;;;;;;5033467;28;20045;-54
2023/02/27 11:23:06;;;;;;;5.10;1.17;;;6.10;99.90;;;;;;5033217;28;20148;-57
2023/02/27 11:25:33;;;;;;;7.78;1.30;;;6.10;99.90;;;;;;5033533;28;20087;-55
2023/02/27 11:28:00;;;;;;;4.93;1.40;;;6.10;99.90;;;;;;5033040;28;20041;-50
2023/02/27 11:30:26;;;;;;;5.93;1.02;;;6.10;99.90;;;;;;5033249;28;20038;-52
2023/02/27 11:32:53;;;;;;;7.18;1.50;;;6.20;99.90;;;;;;5032966;28;20037;-49
2023/02/27 11:35:20;;;;;;;6.00;1.10;;;6.30;99.90;;;;;;5033310;28;20045;-51
2023/02/27 11:37:48;;;;;;;8.13;1.90;;;6.40;99.90;;;;;;5033338;28;20534;-50
2023/02/27 11:40:15;;;;;;;5.78;1.33;;;6.50;99.90;;;;;;5033358;28;20452;-53
2023/02/27 11:42:41;;;;;;;8.10;1.63;;;6.40;99.90;;;;;;5032660;28;20052;-56
2023/02/27 11:45:08;;;;;;;4.75;1.25;;;6.50;99.90;;;;;;5033183;28;20073;-54
2023/02/27 11:47:35;;;;;;;4.90;1.10;;;6.50;99.90;;;;;;5032272;28;20484;-53
2023/02/27 11:50:02;;;;;;;4.05;1.00;;;6.60;99.90;;;;;;5032929;28;20041;-54
2023/02/27 11:52:28;;;;;;;9.82;1.63;;;6.60;99.90;;;;;;5032599;28;20099;-54
2023/02/27 11:54:55;;;;;;;5.00;1.10;;;6.70;99.90;;;;;;5032008;28;20468;-54
2023/02/27 11:57:22;;;;;;;4.53;0.82;;;6.80;99.90;;;;;;5033276;28;20095;-54
2023/02/27 11:59:51;;;;;;;5.63;1.02;;;6.90;99.90;;;;;;5023125;28;20053;-56
2023/02/27 12:02:18;;;;;;;9.00;1.15;;;7.00;99.90;;;;;;5031147;28;20524;-55
2023/02/27 12:04:45;;;;;;;4.03;0.98;;;7.20;99.90;;;;;;5033068;28;20041;-52
2023/02/27 12:07:12;;;;;;;4.68;1.13;;;7.30;99.90;;;;;;5031869;28;20046;-52
2023/02/27 12:09:38;;;;;;;5.10;1.20;;;7.30;99.90;;;;;;5033358;28;20073;-54
2023/02/27 12:12:05;;;;;;;4.93;0.95;;;7.30;99.90;;;;;;5031507;28;20064;-53
2023/02/27 12:14:33;;;;;;;5.25;1.10;;;7.40;99.90;;;;;;5032916;28;20049;-54
2023/02/27 12:17:00;;;;;;;4.57;1.10;;;7.50;99.90;;;;;;5032887;28;20077;-51
2023/02/27 12:19:27;;;;;;;5.25;1.00;;;7.50;99.90;;;;;;5033052;28;20657;-50
2023/02/27 12:21:54;;;;;;;9.07;1.20;;;7.50;99.30;;;;;;5032846;28;20381;-52
2023/02/27 12:24:20;;;;;;;2.90;0.90;;;7.50;98.80;;;;;;5032573;28;20492;-52
2023/02/27 12:26:47;;;;;;;3.75;0.70;;;7.50;98.80;;;;;;5033110;28;20453;-51
2023/02/27 12:29:14;;;;;;;3.22;0.95;;;7.50;98.20;;;;;;5032559;28;20045;-51
2023/02/27 12:31:41;;;;;;;5.03;1.10;;;7.40;98.70;;;;;;5031717;28;20167;-56
2023/02/27 12:34:07;;;;;;;4.35;0.73;;;7.40;99.00;;;;;;5032963;28;20045;-55
2023/02/27 12:36:34;;;;;;;6.68;1.40;;;7.40;99.50;;;;;;5031487;28;20447;-53
2023/02/27 12:39:03;;;;;;;4.22;1.17;;;7.40;99.90;;;;;;5032961;28;20469;-53
2023/02/27 12:41:30;;;;;;;5.18;1.10;;;7.40;99.90;;;;;;5032728;28;20042;-51
2023/02/27 12:43:56;;;;;;;6.32;1.00;;;7.50;99.80;;;;;;5032492;28;20041;-51
2023/02/27 12:46:23;;;;;;;7.35;1.30;;;7.50;99.90;;;;;;5032927;28;20038;-52
2023/02/27 12:48:50;;;;;;;5.57;1.17;;;7.50;99.90;;;;;;5032783;28;20037;-50